createdAt,value
2023-05-20T00:01:39.413Z,1.58
2023-05-20T00:04:06.126Z,1.80
2023-05-20T00:06:32.914Z,1.65
2023-05-20T00:08:59.451Z,1.40
2023-05-20T00:11:27.209Z,1.48
2023-05-20T00:13:55.133Z,1.50
2023-05-20T00:16:21.821Z,1.63
2023-05-20T00:18:48.408Z,1.55
2023-05-20T00:21:15.005Z,1.65
2023-05-20T00:23:41.756Z,1.67
2023-05-20T00:26:08.350Z,1.60
2023-05-20T00:28:34.888Z,1.67
2023-05-20T00:31:02.760Z,1.40
2023-05-20T00:33:29.296Z,1.52
2023-05-20T00:35:55.838Z,1.35
2023-05-20T00:38:22.363Z,1.50
2023-05-20T00:40:48.892Z,1.70
2023-05-20T00:43:15.453Z,1.63
2023-05-20T00:45:42.250Z,1.58
2023-05-20T00:48:10.299Z,1.55
2023-05-20T00:50:36.908Z,1.40
2023-05-20T00:53:03.754Z,1.58
2023-05-20T00:55:30.351Z,1.90
2023-05-20T00:57:56.950Z,1.95
2023-05-20T01:00:23.489Z,2.00
2023-05-20T01:02:50.331Z,1.63
2023-05-20T01:05:18.437Z,1.60
2023-05-20T01:07:45.036Z,1.95
2023-05-20T01:10:11.787Z,1.77
2023-05-20T01:12:42.690Z,2.25
2023-05-20T01:15:11.552Z,1.77
2023-05-20T01:17:40.864Z,1.60
2023-05-20T01:20:09.379Z,1.77
2023-05-20T01:22:38.365Z,1.95
2023-05-20T01:25:05.414Z,1.70
2023-05-20T01:27:32.051Z,2.00
2023-05-20T01:29:58.793Z,2.22
2023-05-20T01:32:31.484Z,1.88
2023-05-20T01:34:59.329Z,1.93
2023-05-20T01:37:27.626Z,1.98
2023-05-20T01:39:56.394Z,2.13
2023-05-20T01:42:23.677Z,2.45
2023-05-20T01:44:50.247Z,1.92
2023-05-20T01:47:16.774Z,2.20
2023-05-20T01:49:43.346Z,2.25
2023-05-20T01:52:10.141Z,2.10
2023-05-20T01:54:36.654Z,2.13
2023-05-20T01:57:04.966Z,2.00
2023-05-20T01:59:31.583Z,2.20
2023-05-20T02:01:58.163Z,2.45
2023-05-20T02:04:24.764Z,2.28
2023-05-20T02:06:51.284Z,2.35
2023-05-20T02:09:18.566Z,2.45
2023-05-20T02:11:45.098Z,2.25
2023-05-20T02:14:13.075Z,2.45
2023-05-20T02:16:39.605Z,2.17
2023-05-20T02:19:06.208Z,2.63
2023-05-20T02:21:32.752Z,2.05
2023-05-20T02:23:59.250Z,2.40
2023-05-20T02:26:25.790Z,2.15
2023-05-20T02:28:52.335Z,2.70
2023-05-20T02:31:20.327Z,2.50
2023-05-20T02:33:46.876Z,2.38
2023-05-20T02:36:13.489Z,2.40
2023-05-20T02:38:39.989Z,2.45
2023-05-20T02:41:06.519Z,2.35
2023-05-20T02:43:33.807Z,2.55
2023-05-20T02:46:00.529Z,2.72
2023-05-20T02:48:28.541Z,2.67
2023-05-20T02:50:55.597Z,2.67
2023-05-20T02:53:22.132Z,3.20
2023-05-20T02:55:48.806Z,2.47
2023-05-20T02:58:15.378Z,2.78
2023-05-20T03:00:41.930Z,2.75
2023-05-20T03:03:09.179Z,2.70
2023-05-20T03:05:37.338Z,2.65
2023-05-20T03:08:08.693Z,3.35
2023-05-20T03:10:35.248Z,2.58
2023-05-20T03:13:01.826Z,2.95
2023-05-20T03:15:28.506Z,2.58
2023-05-20T03:17:55.075Z,2.95
2023-05-20T03:20:21.958Z,2.83
2023-05-20T03:22:49.799Z,2.70
2023-05-20T03:25:16.403Z,2.42
2023-05-20T03:27:43.027Z,2.53
2023-05-20T03:30:10.138Z,2.97
2023-05-20T03:32:36.728Z,2.40
2023-05-20T03:35:03.505Z,2.47
2023-05-20T03:37:30.040Z,2.97
2023-05-20T03:39:57.890Z,2.80
2023-05-20T03:42:24.422Z,2.88
2023-05-20T03:44:50.990Z,2.95
2023-05-20T03:47:17.535Z,2.88
2023-05-20T03:49:44.070Z,3.67
2023-05-20T03:52:10.618Z,2.50
2023-05-20T03:54:37.156Z,2.33
2023-05-20T03:57:05.460Z,3.00
2023-05-20T03:59:32.064Z,3.05
2023-05-20T04:01:58.583Z,2.97
2023-05-20T04:04:25.170Z,2.92
2023-05-20T04:06:51.686Z,3.03
2023-05-20T04:09:18.237Z,2.80
2023-05-20T04:11:44.814Z,2.88
2023-05-20T04:14:12.654Z,2.58
2023-05-20T04:16:39.265Z,3.85
2023-05-20T04:19:05.904Z,2.33
2023-05-20T04:21:32.723Z,2.97
2023-05-20T04:23:59.289Z,2.92
2023-05-20T04:26:25.853Z,2.50
2023-05-20T04:28:52.346Z,3.08
2023-05-20T04:31:20.240Z,2.65
2023-05-20T04:33:46.893Z,2.97
2023-05-20T04:36:13.449Z,2.90
2023-05-20T04:38:39.966Z,3.00
2023-05-20T04:41:06.503Z,3.03
2023-05-20T04:43:33.040Z,2.63
2023-05-20T04:46:00.042Z,2.72
2023-05-20T04:48:27.938Z,2.90
2023-05-20T04:50:54.486Z,3.25
2023-05-20T04:53:21.027Z,2.58
2023-05-20T04:55:48.082Z,3.08
2023-05-20T04:58:14.601Z,2.50
2023-05-20T05:00:41.347Z,2.75
2023-05-20T05:03:08.091Z,3.03
2023-05-20T05:05:36.215Z,3.00
2023-05-20T05:08:02.911Z,2.88
2023-05-20T05:10:29.605Z,2.20
2023-05-20T05:12:56.133Z,2.80
2023-05-20T05:15:22.654Z,3.33
2023-05-20T05:17:49.226Z,3.25
2023-05-20T05:20:16.022Z,2.72
2023-05-20T05:22:44.058Z,3.50
2023-05-20T05:25:11.634Z,2.80
2023-05-20T05:27:39.061Z,2.92
2023-05-20T05:30:07.102Z,2.97
2023-05-20T05:32:34.234Z,2.55
2023-05-20T05:35:00.765Z,2.75
2023-05-20T05:37:27.332Z,2.80
2023-05-20T05:39:55.224Z,2.38
2023-05-20T05:42:21.812Z,2.47
2023-05-20T05:44:48.812Z,3.22
2023-05-20T05:47:15.469Z,2.58
2023-05-20T05:49:42.018Z,2.60
2023-05-20T05:52:08.632Z,2.38
2023-05-20T05:54:35.172Z,2.83
2023-05-20T05:57:04.542Z,2.63
2023-05-20T05:59:32.342Z,3.15
2023-05-20T06:01:58.890Z,2.42
2023-05-20T06:04:25.633Z,2.58
2023-05-20T06:06:52.160Z,2.50
2023-05-20T06:09:18.646Z,2.53
2023-05-20T06:11:45.176Z,2.63
2023-05-20T06:14:13.106Z,2.60
2023-05-20T06:16:39.716Z,2.30
2023-05-20T06:19:06.287Z,3.03
2023-05-20T06:21:32.938Z,2.38
2023-05-20T06:23:59.532Z,2.40
2023-05-20T06:26:26.052Z,2.58
2023-05-20T06:28:52.576Z,2.50
2023-05-20T06:31:20.494Z,2.60
2023-05-20T06:33:47.051Z,2.63
2023-05-20T06:36:13.735Z,2.40
2023-05-20T06:38:40.294Z,2.63
2023-05-20T06:41:06.844Z,1.98
2023-05-20T06:43:33.386Z,2.40
2023-05-20T06:46:00.021Z,2.45
2023-05-20T06:48:28.029Z,2.50
2023-05-20T06:50:54.593Z,2.22
2023-05-20T06:53:21.120Z,2.50
2023-05-20T06:55:47.830Z,2.40
2023-05-20T06:58:14.388Z,2.25
2023-05-20T07:00:40.947Z,2.25
2023-05-20T07:03:07.544Z,2.28
2023-05-20T07:05:35.727Z,3.00
2023-05-20T07:08:02.434Z,2.40
2023-05-20T07:10:29.506Z,2.42
2023-05-20T07:12:56.135Z,2.40
2023-05-20T07:15:22.645Z,2.25
2023-05-20T07:17:49.217Z,2.28
2023-05-20T07:20:15.820Z,2.35
2023-05-20T07:22:43.690Z,2.60
2023-05-20T07:25:10.813Z,2.20
2023-05-20T07:27:37.436Z,1.80
2023-05-20T07:30:04.704Z,2.30
2023-05-20T07:32:31.249Z,2.28
2023-05-20T07:34:57.845Z,2.55
2023-05-20T07:37:24.357Z,2.13
2023-05-20T07:39:52.267Z,2.38
2023-05-20T07:42:18.798Z,2.30
2023-05-20T07:44:45.400Z,2.05
2023-05-20T07:47:13.824Z,2.53
2023-05-20T07:49:40.350Z,1.65
2023-05-20T07:52:07.052Z,2.15
2023-05-20T07:54:34.686Z,2.13
2023-05-20T07:57:02.557Z,2.15
2023-05-20T07:59:29.084Z,2.00
2023-05-20T08:01:55.673Z,2.30
2023-05-20T08:04:22.279Z,1.58
2023-05-20T08:06:48.869Z,1.80
2023-05-20T08:09:15.469Z,1.85
2023-05-20T08:11:42.009Z,1.95
2023-05-20T08:14:09.865Z,1.92
2023-05-20T08:16:36.674Z,1.60
2023-05-20T08:19:03.467Z,1.75
2023-05-20T08:21:30.062Z,1.95
2023-05-20T08:23:56.614Z,1.80
2023-05-20T08:26:23.110Z,1.67
2023-05-20T08:28:49.649Z,2.35
2023-05-20T08:31:18.049Z,1.67
2023-05-20T08:33:44.593Z,1.65
2023-05-20T08:36:11.216Z,1.65
2023-05-20T08:38:37.759Z,1.95
2023-05-20T08:41:04.353Z,1.70
2023-05-20T08:43:30.890Z,1.75
2023-05-20T08:45:57.470Z,1.80
2023-05-20T08:48:26.705Z,1.80
2023-05-20T08:50:55.811Z,1.58
2023-05-20T08:53:22.687Z,2.00
2023-05-20T08:55:54.698Z,1.58
2023-05-20T08:58:22.103Z,1.80
2023-05-20T09:00:48.862Z,1.73
2023-05-20T09:03:15.441Z,1.65
2023-05-20T09:05:43.333Z,1.80
2023-05-20T09:08:11.148Z,2.00
2023-05-20T09:10:38.681Z,1.77
2023-05-20T09:13:06.510Z,2.65
2023-05-20T09:15:33.719Z,1.83
2023-05-20T09:18:00.969Z,2.00
2023-05-20T09:20:28.108Z,1.73
2023-05-20T09:22:59.787Z,1.90
2023-05-20T09:25:26.386Z,1.90
2023-05-20T09:27:52.980Z,1.63
2023-05-20T09:30:19.804Z,1.80
2023-05-20T09:32:53.143Z,1.92
2023-05-20T09:35:20.407Z,1.65
2023-05-20T09:37:48.411Z,1.70
2023-05-20T09:40:17.513Z,1.70
2023-05-20T09:42:50.361Z,1.60
2023-05-20T09:45:17.042Z,1.83
2023-05-20T09:47:45.455Z,1.98
2023-05-20T09:50:12.792Z,2.30
2023-05-20T09:52:39.724Z,2.03
2023-05-20T09:55:07.704Z,1.70
2023-05-20T09:57:37.356Z,1.55
2023-05-20T10:00:05.695Z,2.00
2023-05-20T10:02:33.584Z,1.70
2023-05-20T10:05:06.453Z,2.20
2023-05-20T10:08:14.551Z,2.25
2023-05-20T10:10:55.318Z,1.92
2023-05-20T10:13:38.639Z,2.17
2023-05-20T10:16:17.178Z,2.60
2023-05-20T10:18:55.049Z,2.00
2023-05-20T10:21:22.795Z,2.38
2023-05-20T10:23:49.366Z,2.53
2023-05-20T10:26:15.913Z,2.22
2023-05-20T10:28:43.812Z,2.35
2023-05-20T10:31:18.292Z,1.88
2023-05-20T10:33:46.059Z,2.47
2023-05-20T10:36:22.919Z,2.28
2023-05-20T10:38:53.866Z,2.42
2023-05-20T10:41:21.995Z,2.28
2023-05-20T10:43:59.876Z,2.20
2023-05-20T10:46:33.896Z,2.22
2023-05-20T10:49:05.568Z,1.88
2023-05-20T10:51:36.083Z,1.95
2023-05-20T10:54:02.762Z,2.00
2023-05-20T10:56:29.283Z,2.20
2023-05-20T10:58:57.522Z,2.30
2023-05-20T11:01:26.100Z,2.88
2023-05-20T11:03:54.620Z,2.55
2023-05-20T11:06:26.276Z,1.88
2023-05-20T11:08:52.844Z,2.33
2023-05-20T11:11:19.394Z,2.80
2023-05-20T11:13:50.756Z,2.40
2023-05-20T11:16:19.941Z,2.30
2023-05-20T11:18:48.765Z,2.50
2023-05-20T11:21:15.351Z,2.35
2023-05-20T11:23:42.403Z,2.33
2023-05-20T11:26:09.018Z,2.58
2023-05-20T11:28:35.797Z,2.10
2023-05-20T11:31:02.470Z,2.35
2023-05-20T11:33:30.463Z,2.38
2023-05-20T11:35:57.167Z,2.85
2023-05-20T11:38:24.718Z,2.05
2023-05-20T11:40:53.070Z,2.55
2023-05-20T11:43:20.532Z,2.60
2023-05-20T11:45:52.346Z,2.63
2023-05-20T11:48:19.255Z,2.13
2023-05-20T11:50:48.322Z,2.45
2023-05-20T11:53:16.624Z,2.30
2023-05-20T11:55:47.570Z,2.20
2023-05-20T11:58:16.420Z,2.30
2023-05-20T12:00:50.666Z,2.17
2023-05-20T12:03:22.134Z,2.30
2023-05-20T12:05:50.537Z,2.03
2023-05-20T12:08:17.384Z,2.13
2023-05-20T12:10:43.932Z,3.67
2023-05-20T12:13:10.831Z,3.00
2023-05-20T12:15:37.475Z,2.97
2023-05-20T12:18:04.243Z,2.75
2023-05-20T12:20:31.420Z,2.75
2023-05-20T12:22:59.297Z,2.50
2023-05-20T12:25:25.871Z,2.65
2023-05-20T12:27:52.441Z,2.53
2023-05-20T12:30:20.728Z,2.40
2023-05-20T12:32:48.501Z,2.40
2023-05-20T12:35:15.374Z,2.55
2023-05-20T12:37:43.123Z,2.88
2023-05-20T12:40:12.268Z,2.75
2023-05-20T12:42:39.791Z,2.40
2023-05-20T12:45:07.933Z,2.30
2023-05-20T12:47:34.903Z,2.25
2023-05-20T12:50:01.915Z,2.20
2023-05-20T12:52:28.616Z,2.40
2023-05-20T12:54:55.706Z,2.70
2023-05-20T12:57:23.811Z,2.30
2023-05-20T12:59:50.705Z,2.38
2023-05-20T13:02:17.493Z,1.88
2023-05-20T13:04:44.078Z,2.65
2023-05-20T13:07:10.661Z,2.35
2023-05-20T13:09:37.208Z,2.17
2023-05-20T13:12:04.165Z,2.65
2023-05-20T13:14:32.016Z,2.22
2023-05-20T13:16:58.725Z,2.05
2023-05-20T13:19:25.452Z,2.67
2023-05-20T13:21:52.210Z,2.70
2023-05-20T13:24:18.744Z,2.50
2023-05-20T13:26:45.370Z,2.63
2023-05-20T13:29:12.015Z,2.38
2023-05-20T13:31:40.015Z,2.17
2023-05-20T13:34:06.623Z,2.72
2023-05-20T13:36:33.465Z,2.75
2023-05-20T13:39:00.027Z,2.67
2023-05-20T13:41:26.522Z,2.20
2023-05-20T13:43:53.241Z,2.35
2023-05-20T13:46:19.829Z,2.45
2023-05-20T13:48:47.931Z,2.70
2023-05-20T13:51:14.482Z,2.40
2023-05-20T13:53:41.042Z,2.40
2023-05-20T13:56:07.709Z,3.17
2023-05-20T13:58:34.230Z,2.75
2023-05-20T14:01:00.764Z,2.50
2023-05-20T14:03:27.418Z,2.03
2023-05-20T14:05:55.652Z,2.30
2023-05-20T14:08:22.206Z,1.95
2023-05-20T14:10:48.944Z,1.90
2023-05-20T14:13:15.622Z,2.30
2023-05-20T14:15:42.669Z,2.30
2023-05-20T14:18:09.266Z,1.92
2023-05-20T14:20:36.098Z,1.85
2023-05-20T14:23:04.140Z,1.92
2023-05-20T14:25:30.707Z,1.77
2023-05-20T14:27:57.220Z,2.13
2023-05-20T14:30:23.904Z,2.03
2023-05-20T14:32:50.668Z,2.33
2023-05-20T14:35:17.253Z,2.10
2023-05-20T14:37:43.813Z,2.00
2023-05-20T14:40:12.390Z,2.20
2023-05-20T14:42:39.297Z,1.98
2023-05-20T14:45:07.115Z,1.70
2023-05-20T14:47:33.759Z,1.63
2023-05-20T14:50:00.641Z,1.70
2023-05-20T14:52:27.180Z,1.80
2023-05-20T14:54:53.770Z,1.85
2023-05-20T14:57:21.700Z,1.42
2023-05-20T14:59:48.257Z,1.90
2023-05-20T15:02:15.797Z,1.60
2023-05-20T15:04:42.397Z,1.45
2023-05-20T15:07:09.154Z,2.60
2023-05-20T15:09:35.971Z,1.60
2023-05-20T15:12:02.509Z,1.77
2023-05-20T15:14:30.378Z,1.83
2023-05-20T15:16:57.046Z,1.45
2023-05-20T15:19:23.697Z,1.70
2023-05-20T15:21:50.236Z,1.85
2023-05-20T15:24:16.790Z,1.77
2023-05-20T15:26:43.409Z,1.70
2023-05-20T15:29:09.991Z,1.95
2023-05-20T15:31:37.917Z,1.58
2023-05-20T15:34:04.628Z,1.33
2023-05-20T15:36:31.563Z,1.60
2023-05-20T15:38:58.095Z,1.38
2023-05-20T15:41:24.619Z,1.60
2023-05-20T15:43:51.216Z,1.90
2023-05-20T15:46:17.859Z,1.63
2023-05-20T15:48:45.776Z,1.40
2023-05-20T15:51:12.390Z,1.50
2023-05-20T15:53:40.735Z,1.50
2023-05-20T15:56:08.699Z,1.80
2023-05-20T15:58:35.220Z,1.50
2023-05-20T16:01:01.864Z,1.63
2023-05-20T16:03:28.718Z,1.38
2023-05-20T16:05:56.630Z,1.30
2023-05-20T16:08:23.169Z,1.92
2023-05-20T16:10:49.776Z,1.55
2023-05-20T16:13:16.317Z,1.77
2023-05-20T16:15:42.899Z,1.55
2023-05-20T16:18:09.569Z,1.58
2023-05-20T16:20:36.301Z,1.60
2023-05-20T16:23:04.306Z,1.20
2023-05-20T16:25:30.821Z,1.42
2023-05-20T16:27:57.345Z,1.38
2023-05-20T16:30:24.147Z,1.65
2023-05-20T16:32:50.742Z,1.50
2023-05-20T16:35:17.316Z,1.48
2023-05-20T16:37:43.833Z,1.70
2023-05-20T16:40:12.565Z,1.48
2023-05-20T16:42:39.096Z,1.55
2023-05-20T16:45:06.725Z,1.58
2023-05-20T16:47:33.289Z,1.23
2023-05-20T16:49:59.795Z,1.50
2023-05-20T16:52:26.324Z,1.50
2023-05-20T16:54:52.886Z,1.70
2023-05-20T16:57:20.905Z,1.58
2023-05-20T16:59:47.488Z,1.67
2023-05-20T17:02:14.279Z,1.60
2023-05-20T17:04:41.101Z,1.30
2023-05-20T17:07:07.669Z,1.50
2023-05-20T17:09:34.185Z,1.35
2023-05-20T17:12:00.780Z,1.70
2023-05-20T17:14:28.656Z,1.52
2023-05-20T17:16:55.264Z,1.02
2023-05-20T17:19:21.913Z,1.10
2023-05-20T17:21:48.534Z,1.55
2023-05-20T17:24:15.333Z,1.50
2023-05-20T17:26:41.927Z,1.58
2023-05-20T17:29:08.497Z,1.20
2023-05-20T17:31:36.345Z,1.25
2023-05-20T17:34:02.933Z,1.20
2023-05-20T17:36:29.732Z,1.33
2023-05-20T17:38:56.266Z,1.27
2023-05-20T17:41:22.797Z,1.27
2023-05-20T17:43:49.371Z,1.45
2023-05-20T17:46:16.202Z,1.20
2023-05-20T17:48:44.155Z,1.50
2023-05-20T17:51:10.673Z,1.20
2023-05-20T17:53:37.194Z,1.80
2023-05-20T17:56:04.272Z,1.48
2023-05-20T17:58:30.783Z,1.90
2023-05-20T18:00:57.472Z,1.30
2023-05-20T18:03:24.064Z,1.15
2023-05-20T18:05:53.784Z,1.30
2023-05-20T18:08:21.711Z,1.45
2023-05-20T18:10:48.216Z,1.73
2023-05-20T18:13:17.326Z,5.53
2023-05-20T18:15:44.108Z,4.60
2023-05-20T18:18:10.736Z,4.53
2023-05-20T18:20:37.511Z,3.70
2023-05-20T18:23:05.572Z,1.80
2023-05-20T18:25:32.074Z,1.48
2023-05-20T18:27:58.661Z,2.38
2023-05-20T18:30:25.325Z,1.50
2023-05-20T18:32:51.907Z,2.00
2023-05-20T18:35:18.594Z,1.60
2023-05-20T18:37:45.162Z,1.77
2023-05-20T18:40:13.742Z,1.60
2023-05-20T18:42:40.316Z,1.63
2023-05-20T18:45:08.121Z,1.70
2023-05-20T18:47:34.739Z,1.63
2023-05-20T18:50:01.303Z,2.05
2023-05-20T18:52:27.953Z,1.75
2023-05-20T18:54:54.535Z,1.90
2023-05-20T18:57:22.619Z,1.63
2023-05-20T18:59:49.239Z,1.42
2023-05-20T19:02:17.270Z,1.40
2023-05-20T19:04:44.019Z,1.98
2023-05-20T19:07:10.690Z,2.55
2023-05-20T19:09:37.182Z,1.60
2023-05-20T19:12:04.139Z,1.40
2023-05-20T19:14:32.055Z,1.85
2023-05-20T19:16:58.662Z,1.70
2023-05-20T19:19:25.270Z,1.63
2023-05-20T19:21:51.871Z,1.92
2023-05-20T19:24:18.421Z,1.48
2023-05-20T19:26:45.189Z,1.83
2023-05-20T19:29:11.701Z,2.03
2023-05-20T19:31:39.668Z,1.52
2023-05-20T19:34:06.293Z,1.65
2023-05-20T19:36:32.813Z,2.47
2023-05-20T19:38:59.342Z,2.00
2023-05-20T19:41:25.883Z,5.10
2023-05-20T19:43:52.437Z,3.40
2023-05-20T19:46:19.070Z,2.90
2023-05-20T19:48:46.968Z,2.45
2023-05-20T19:51:13.532Z,1.92
2023-05-20T19:53:40.029Z,2.47
2023-05-20T19:56:06.640Z,2.53
2023-05-20T19:58:33.248Z,1.70
2023-05-20T20:00:59.776Z,3.10
2023-05-20T20:03:26.298Z,1.98
2023-05-20T20:05:54.235Z,1.55
2023-05-20T20:08:20.828Z,1.63
2023-05-20T20:10:47.368Z,2.95
2023-05-20T20:13:13.909Z,2.75
2023-05-20T20:15:40.486Z,4.05
2023-05-20T20:18:07.109Z,3.00
2023-05-20T20:20:33.677Z,2.80
2023-05-20T20:23:01.633Z,7.60
2023-05-20T20:25:28.201Z,1.98
2023-05-20T20:27:54.702Z,2.03
2023-05-20T20:30:21.222Z,2.72
2023-05-20T20:32:47.786Z,2.15
2023-05-20T20:35:14.406Z,2.13
2023-05-20T20:37:41.002Z,2.22
2023-05-20T20:40:09.588Z,2.17
2023-05-20T20:42:36.141Z,2.08
2023-05-20T20:45:02.738Z,2.25
2023-05-20T20:47:29.454Z,2.60
2023-05-20T20:49:56.527Z,2.15
2023-05-20T20:52:23.118Z,2.15
2023-05-20T20:54:49.627Z,2.03
2023-05-20T20:57:17.631Z,2.03
2023-05-20T20:59:44.175Z,2.10
2023-05-20T21:02:10.727Z,2.20
2023-05-20T21:04:37.278Z,2.15
2023-05-20T21:07:04.025Z,2.42
2023-05-20T21:09:30.581Z,2.03
2023-05-20T21:11:57.094Z,2.20
2023-05-20T21:14:24.977Z,2.22
2023-05-20T21:16:51.610Z,2.00
2023-05-20T21:19:18.355Z,2.00
2023-05-20T21:21:44.902Z,2.05
2023-05-20T21:24:11.426Z,2.38
2023-05-20T21:26:37.904Z,1.83
2023-05-20T21:29:04.490Z,2.25
2023-05-20T21:31:32.470Z,2.28
2023-05-20T21:33:59.049Z,2.38
2023-05-20T21:36:25.569Z,2.45
2023-05-20T21:38:52.086Z,2.58
2023-05-20T21:41:18.636Z,2.17
2023-05-20T21:43:45.142Z,2.60
2023-05-20T21:46:11.743Z,2.80
2023-05-20T21:48:39.630Z,2.50
2023-05-20T21:51:06.170Z,2.63
2023-05-20T21:53:32.704Z,2.72
2023-05-20T21:55:59.342Z,2.83
2023-05-20T21:58:25.839Z,2.63
2023-05-20T22:00:52.368Z,2.60
2023-05-20T22:03:19.029Z,2.92
2023-05-20T22:05:46.954Z,3.40
2023-05-20T22:08:13.856Z,3.28
2023-05-20T22:10:40.429Z,3.58
2023-05-20T22:13:07.007Z,3.15
2023-05-20T22:15:33.811Z,3.38
2023-05-20T22:18:00.553Z,3.33
2023-05-20T22:20:27.198Z,3.50
2023-05-20T22:22:55.062Z,3.45
2023-05-20T22:25:21.591Z,3.05
2023-05-20T22:27:48.093Z,3.55
2023-05-20T22:30:14.633Z,3.88
2023-05-20T22:32:41.199Z,4.03
2023-05-20T22:35:08.857Z,3.53
2023-05-20T22:37:35.411Z,3.92
2023-05-20T22:40:03.720Z,3.95
2023-05-20T22:42:30.255Z,3.75
2023-05-20T22:44:56.775Z,4.22
2023-05-20T22:47:23.338Z,3.80
2023-05-20T22:49:49.875Z,3.85
2023-05-20T22:52:16.486Z,4.32
2023-05-20T22:54:43.027Z,3.90
2023-05-20T22:57:10.907Z,3.45
2023-05-20T22:59:37.422Z,3.90
2023-05-20T23:02:04.405Z,3.83
2023-05-20T23:04:31.024Z,3.83
2023-05-20T23:06:59.403Z,3.72
2023-05-20T23:09:26.438Z,4.13
2023-05-20T23:11:53.022Z,3.97
2023-05-20T23:14:20.936Z,3.83
2023-05-20T23:16:47.573Z,3.55
2023-05-20T23:19:14.454Z,2.88
2023-05-20T23:21:41.184Z,3.88
2023-05-20T23:24:07.734Z,3.80
2023-05-20T23:26:34.300Z,2.90
2023-05-20T23:29:00.933Z,3.33
2023-05-20T23:31:28.831Z,3.72
2023-05-20T23:33:55.468Z,3.75
2023-05-20T23:36:22.018Z,3.47
2023-05-20T23:38:48.566Z,3.55
2023-05-20T23:41:15.076Z,3.65
2023-05-20T23:43:41.603Z,3.95
2023-05-20T23:46:08.310Z,4.30
2023-05-20T23:48:36.252Z,4.38
2023-05-20T23:51:02.947Z,4.30
2023-05-20T23:53:29.576Z,4.20
2023-05-20T23:55:56.118Z,4.80
2023-05-20T23:58:22.680Z,4.70
